createdAt,value
2022-09-27T00:00:40.117Z,0.00
2022-09-27T00:01:39.942Z,0.00
2022-09-27T00:02:39.933Z,0.00
2022-09-27T00:03:39.906Z,0.00
2022-09-27T00:04:39.934Z,0.00
2022-09-27T00:05:39.961Z,0.00
2022-09-27T00:06:41.024Z,0.00
2022-09-27T00:07:40.325Z,0.00
2022-09-27T00:08:40.081Z,0.00
2022-09-27T00:09:40.083Z,0.00
2022-09-27T00:10:40.120Z,0.00
2022-09-27T00:11:40.173Z,0.00
2022-09-27T00:12:40.179Z,0.00
2022-09-27T00:13:40.205Z,0.00
2022-09-27T00:14:40.569Z,0.00
2022-09-27T00:15:40.313Z,0.00
2022-09-27T00:16:40.299Z,0.00
2022-09-27T00:17:40.327Z,0.00
2022-09-27T00:18:40.358Z,0.00
2022-09-27T00:19:40.386Z,0.00
2022-09-27T00:20:40.420Z,0.00
2022-09-27T00:21:40.748Z,0.00
2022-09-27T00:22:40.502Z,0.00
2022-09-27T00:23:40.508Z,0.00
2022-09-27T00:24:40.551Z,0.00
2022-09-27T00:25:40.572Z,0.00
2022-09-27T00:26:40.603Z,0.00
2022-09-27T00:27:40.935Z,0.00
2022-09-27T00:28:40.668Z,0.00
2022-09-27T00:29:40.692Z,0.00
2022-09-27T00:30:40.808Z,0.00
2022-09-27T00:31:40.753Z,0.00
2022-09-27T00:32:40.786Z,0.00
2022-09-27T00:33:41.114Z,0.00
2022-09-27T00:34:40.846Z,0.00
2022-09-27T00:35:40.878Z,0.00
2022-09-27T00:36:40.915Z,0.00
2022-09-27T00:37:40.935Z,0.00
2022-09-27T00:38:40.989Z,0.00
2022-09-27T00:39:41.347Z,0.00
2022-09-27T00:40:41.110Z,0.00
2022-09-27T00:41:41.061Z,0.00
2022-09-27T00:42:41.089Z,0.00
2022-09-27T00:43:41.117Z,0.00
2022-09-27T00:44:41.154Z,0.00
2022-09-27T00:45:41.215Z,0.00
2022-09-27T00:46:41.604Z,0.00
2022-09-27T00:47:41.241Z,0.00
2022-09-27T00:48:41.372Z,0.00
2022-09-27T00:49:41.302Z,0.00
2022-09-27T00:50:41.332Z,0.00
2022-09-27T00:51:41.361Z,0.00
2022-09-27T00:52:41.397Z,0.00
2022-09-27T00:53:41.725Z,0.00
2022-09-27T00:54:41.473Z,0.00
2022-09-27T00:55:41.485Z,0.00
2022-09-27T00:56:41.516Z,0.00
2022-09-27T00:57:41.551Z,0.00
2022-09-27T00:58:41.574Z,0.00
2022-09-27T00:59:41.608Z,0.00
2022-09-27T01:00:41.936Z,0.00
2022-09-27T01:01:41.714Z,0.00
2022-09-27T01:02:41.786Z,0.00
2022-09-27T01:03:41.724Z,0.00
2022-09-27T01:04:41.943Z,0.00
2022-09-27T01:05:41.860Z,0.00
2022-09-27T01:06:41.818Z,0.00
2022-09-27T01:07:42.149Z,0.00
2022-09-27T01:08:41.881Z,0.00
2022-09-27T01:09:41.910Z,0.00
2022-09-27T01:10:41.975Z,0.00
2022-09-27T01:11:41.967Z,0.00
2022-09-27T01:12:42.002Z,0.00
2022-09-27T01:13:42.031Z,0.00
2022-09-27T01:14:42.361Z,0.00
2022-09-27T01:15:42.168Z,0.00
2022-09-27T01:16:42.122Z,0.00
2022-09-27T01:17:42.152Z,0.00
2022-09-27T01:18:42.193Z,0.00
2022-09-27T01:19:42.216Z,0.00
2022-09-27T01:20:42.243Z,0.00
2022-09-27T01:21:42.578Z,0.00
2022-09-27T01:22:42.304Z,0.00
2022-09-27T01:23:42.335Z,0.00
2022-09-27T01:24:42.365Z,0.00
2022-09-27T01:25:42.396Z,0.00
2022-09-27T01:26:42.448Z,0.00
2022-09-27T01:27:42.456Z,0.00
2022-09-27T01:28:42.790Z,0.00
2022-09-27T01:29:42.516Z,0.00
2022-09-27T01:30:42.579Z,0.00
2022-09-27T01:31:42.576Z,0.00
2022-09-27T01:32:42.610Z,0.00
2022-09-27T01:33:42.640Z,0.00
2022-09-27T01:34:42.672Z,0.00
2022-09-27T01:35:42.997Z,0.00
2022-09-27T01:36:42.730Z,0.00
2022-09-27T01:37:42.757Z,0.00
2022-09-27T01:38:42.790Z,0.00
2022-09-27T01:39:42.819Z,0.00
2022-09-27T01:41:42.881Z,0.00
2022-09-27T01:42:43.233Z,0.00
2022-09-27T01:43:42.942Z,0.00
2022-09-27T01:44:42.976Z,0.00
2022-09-27T01:45:43.005Z,0.00
2022-09-27T01:46:43.033Z,0.00
2022-09-27T01:47:43.062Z,0.00
2022-09-27T01:48:43.096Z,0.00
2022-09-27T01:49:43.425Z,0.00
2022-09-27T01:50:43.150Z,0.00
2022-09-27T01:51:43.182Z,0.00
2022-09-27T01:52:43.213Z,0.00
2022-09-27T01:53:43.244Z,0.00
2022-09-27T01:54:43.272Z,0.00
2022-09-27T01:55:43.304Z,0.00
2022-09-27T01:56:43.635Z,0.00
2022-09-27T01:57:43.367Z,0.00
2022-09-27T01:58:43.423Z,0.00
2022-09-27T01:59:43.428Z,0.00
2022-09-27T02:00:43.455Z,0.00
2022-09-27T02:01:43.545Z,0.00
2022-09-27T02:02:43.525Z,0.00
2022-09-27T02:03:43.853Z,0.00
2022-09-27T02:04:43.575Z,0.00
2022-09-27T02:05:43.621Z,0.00
2022-09-27T02:06:43.640Z,0.00
2022-09-27T02:07:43.673Z,0.00
2022-09-27T02:08:43.700Z,0.00
2022-09-27T02:09:43.737Z,0.00
2022-09-27T02:10:44.070Z,0.00
2022-09-27T02:11:43.792Z,0.00
2022-09-27T02:12:43.823Z,0.00
2022-09-27T02:13:43.852Z,0.00
2022-09-27T02:14:43.999Z,0.00
2022-09-27T02:15:43.978Z,0.00
2022-09-27T02:16:44.253Z,0.00
2022-09-27T02:17:43.979Z,0.00
2022-09-27T02:18:44.001Z,0.00
2022-09-27T02:19:44.034Z,0.00
2022-09-27T02:20:44.061Z,0.00
2022-09-27T02:21:44.093Z,0.00
2022-09-27T02:22:44.421Z,0.00
2022-09-27T02:23:44.153Z,0.00
2022-09-27T02:24:44.184Z,0.00
2022-09-27T02:25:44.216Z,0.00
2022-09-27T02:26:44.242Z,0.00
2022-09-27T02:27:44.276Z,0.00
2022-09-27T02:28:44.603Z,0.00
2022-09-27T02:29:44.333Z,0.00
2022-09-27T02:30:44.435Z,0.00
2022-09-27T02:31:44.399Z,0.00
2022-09-27T02:32:44.427Z,0.00
2022-09-27T02:33:44.453Z,0.00
2022-09-27T02:34:44.485Z,0.00
2022-09-27T02:35:44.814Z,0.00
2022-09-27T02:36:44.545Z,0.00
2022-09-27T02:37:44.576Z,0.00
2022-09-27T02:38:44.602Z,0.00
2022-09-27T02:39:44.634Z,0.00
2022-09-27T02:42:44.727Z,0.00
2022-09-27T02:43:45.060Z,0.00
2022-09-27T02:44:44.785Z,0.00
2022-09-27T02:45:44.926Z,0.00
2022-09-27T02:46:44.867Z,0.00
2022-09-27T02:47:44.879Z,0.00
2022-09-27T02:48:44.906Z,0.00
2022-09-27T02:49:44.942Z,0.00
2022-09-27T02:50:45.274Z,0.00
2022-09-27T02:51:45.003Z,0.00
2022-09-27T02:52:45.026Z,0.00
2022-09-27T02:53:45.058Z,0.00
2022-09-27T02:54:45.088Z,0.00
2022-09-27T02:55:45.124Z,0.00
2022-09-27T02:56:45.146Z,0.00
2022-09-27T02:57:45.478Z,0.00
2022-09-27T02:58:45.214Z,0.00
2022-09-27T02:59:45.241Z,0.00
2022-09-27T03:00:45.307Z,0.00
2022-09-27T03:01:45.441Z,0.00
2022-09-27T03:02:45.462Z,0.00
2022-09-27T03:03:45.360Z,0.00
2022-09-27T03:04:45.697Z,0.00
2022-09-27T03:05:45.422Z,0.00
2022-09-27T03:06:45.449Z,0.00
2022-09-27T03:07:45.482Z,0.00
2022-09-27T03:08:45.513Z,0.00
2022-09-27T03:09:45.757Z,0.00
2022-09-27T03:10:45.573Z,0.00
2022-09-27T03:11:45.905Z,0.00
2022-09-27T03:12:45.637Z,0.00
2022-09-27T03:14:07.200Z,0.00
2022-09-27T03:14:45.692Z,0.00
2022-09-27T03:15:45.724Z,0.00
2022-09-27T03:16:45.843Z,0.00
2022-09-27T03:17:45.786Z,0.00
2022-09-27T03:18:46.138Z,0.00
2022-09-27T03:19:45.852Z,0.00
2022-09-27T03:20:45.979Z,0.00
2022-09-27T03:21:45.910Z,0.00
2022-09-27T03:22:45.933Z,0.00
2022-09-27T03:23:45.962Z,0.00
2022-09-27T03:24:45.999Z,0.00
2022-09-27T03:25:46.327Z,0.00
2022-09-27T03:26:46.052Z,0.00
2022-09-27T03:27:46.084Z,0.00
2022-09-27T03:28:46.113Z,0.00
2022-09-27T03:29:46.147Z,0.00
2022-09-27T03:30:46.274Z,0.00
2022-09-27T03:31:46.202Z,0.00
2022-09-27T03:32:46.546Z,0.00
2022-09-27T03:33:46.279Z,0.00
2022-09-27T03:34:46.317Z,0.00
2022-09-27T03:35:46.336Z,0.00
2022-09-27T03:36:46.378Z,0.00
2022-09-27T03:37:46.384Z,0.00
2022-09-27T03:38:46.414Z,0.00
2022-09-27T03:39:46.747Z,0.00
2022-09-27T03:40:46.711Z,0.00
2022-09-27T03:41:46.524Z,0.00
2022-09-27T03:42:49.716Z,0.00
2022-09-27T03:43:46.565Z,0.00
2022-09-27T03:44:46.596Z,0.00
2022-09-27T03:45:46.675Z,0.00
2022-09-27T03:47:47.005Z,0.00
2022-09-27T03:48:46.717Z,0.00
2022-09-27T03:49:46.745Z,0.00
2022-09-27T03:50:46.865Z,0.00
2022-09-27T03:51:46.858Z,0.00
2022-09-27T03:52:46.843Z,0.00
2022-09-27T03:53:46.869Z,0.00
2022-09-27T03:54:47.199Z,0.00
2022-09-27T03:55:46.930Z,0.00
2022-09-27T03:56:46.956Z,0.00
2022-09-27T03:58:47.023Z,0.00
2022-09-27T03:59:47.047Z,0.00
2022-09-27T04:00:47.090Z,0.00
2022-09-27T04:01:47.480Z,0.00
2022-09-27T04:02:47.215Z,0.00
2022-09-27T04:03:47.171Z,0.00
2022-09-27T04:04:47.198Z,0.00
2022-09-27T04:05:47.230Z,0.00
2022-09-27T04:06:47.329Z,0.00
2022-09-27T04:07:47.288Z,0.00
2022-09-27T04:08:47.720Z,0.00
2022-09-27T04:09:47.346Z,0.00
2022-09-27T04:10:47.383Z,0.00
2022-09-27T04:11:47.422Z,0.00
2022-09-27T04:12:47.439Z,0.00
2022-09-27T04:13:47.466Z,0.00
2022-09-27T04:14:47.506Z,0.00
2022-09-27T04:15:52.024Z,0.00
2022-09-27T04:16:47.633Z,0.00
2022-09-27T04:17:47.586Z,0.00
2022-09-27T04:18:47.618Z,0.00
2022-09-27T04:19:47.646Z,0.00
2022-09-27T04:20:47.711Z,0.00
2022-09-27T04:21:47.711Z,0.00
2022-09-27T04:22:48.062Z,0.00
2022-09-27T04:23:47.778Z,0.00
2022-09-27T04:24:47.799Z,0.00
2022-09-27T04:25:47.847Z,0.00
2022-09-27T04:26:47.866Z,0.00
2022-09-27T04:27:47.895Z,0.00
2022-09-27T04:28:52.109Z,0.00
2022-09-27T04:29:48.357Z,0.00
2022-09-27T04:30:48.039Z,0.00
2022-09-27T04:31:48.007Z,0.00
2022-09-27T04:32:48.039Z,0.00
2022-09-27T04:33:48.166Z,0.00
2022-09-27T04:34:48.109Z,0.00
2022-09-27T04:35:48.130Z,0.00
2022-09-27T04:36:48.462Z,0.00
2022-09-27T04:37:48.190Z,0.00
2022-09-27T04:38:48.239Z,0.00
2022-09-27T04:39:48.249Z,0.00
2022-09-27T04:40:48.317Z,0.00
2022-09-27T04:41:48.408Z,0.00
2022-09-27T04:42:48.341Z,0.00
2022-09-27T04:43:48.669Z,0.00
2022-09-27T04:44:48.401Z,0.00
2022-09-27T04:45:48.544Z,0.00
2022-09-27T04:46:48.463Z,0.00
2022-09-27T04:47:48.495Z,0.00
2022-09-27T04:48:48.520Z,0.00
2022-09-27T04:49:48.550Z,0.00
2022-09-27T04:50:48.879Z,0.00
2022-09-27T04:51:48.608Z,0.00
2022-09-27T04:52:48.639Z,0.00
2022-09-27T04:53:48.677Z,0.00
2022-09-27T04:54:48.717Z,0.00
2022-09-27T04:55:48.727Z,0.00
2022-09-27T04:56:48.777Z,0.00
2022-09-27T04:57:49.085Z,0.00
2022-09-27T04:58:48.818Z,0.00
2022-09-27T04:59:48.846Z,0.00
2022-09-27T05:00:48.880Z,0.00
2022-09-27T05:01:48.957Z,0.00
2022-09-27T05:02:49.166Z,0.00
2022-09-27T05:03:49.264Z,4.00
2022-09-27T05:04:49.050Z,4.00
2022-09-27T05:05:49.022Z,0.00
2022-09-27T05:06:52.485Z,4.00
2022-09-27T05:07:49.087Z,4.00
2022-09-27T05:08:49.116Z,8.00
2022-09-27T05:09:49.443Z,8.00
2022-09-27T05:10:49.195Z,8.00
2022-09-27T05:11:49.206Z,8.00
2022-09-27T05:12:49.286Z,12.00
2022-09-27T05:13:49.261Z,16.00
2022-09-27T05:14:49.305Z,16.00
2022-09-27T05:15:49.625Z,20.00
2022-09-27T05:16:49.426Z,24.00
2022-09-27T05:17:49.434Z,24.00
2022-09-27T05:18:49.420Z,28.00
2022-09-27T05:19:49.450Z,36.00
2022-09-27T05:20:49.579Z,40.00
2022-09-27T05:21:49.517Z,48.00
2022-09-27T05:22:49.835Z,52.00
2022-09-27T05:23:49.562Z,56.00
2022-09-27T05:24:49.598Z,60.00
2022-09-27T05:25:49.637Z,68.00
2022-09-27T05:26:49.687Z,72.00
2022-09-27T05:27:49.695Z,80.00
2022-09-27T05:28:49.717Z,88.00
2022-09-27T05:29:50.041Z,96.00
2022-09-27T05:30:49.795Z,100.00
2022-09-27T05:31:49.805Z,108.00
2022-09-27T05:32:49.861Z,124.00
2022-09-27T05:33:49.865Z,140.00
2022-09-27T05:34:49.915Z,156.00
2022-09-27T05:35:49.949Z,172.00
2022-09-27T05:36:50.270Z,188.00
2022-09-27T05:37:50.084Z,200.00
2022-09-27T05:38:50.153Z,212.00
2022-09-27T05:39:50.058Z,204.00
2022-09-27T05:40:50.174Z,204.00
2022-09-27T05:42:50.210Z,180.00
2022-09-27T05:43:50.475Z,192.00
2022-09-27T05:44:50.294Z,248.00
2022-09-27T05:45:50.340Z,336.00
2022-09-27T05:46:50.341Z,400.00
2022-09-27T05:47:50.281Z,404.00
2022-09-27T05:48:50.313Z,432.00
2022-09-27T05:49:50.344Z,448.00
2022-09-27T05:50:50.687Z,468.00
2022-09-27T05:51:50.395Z,496.00
2022-09-27T05:52:50.429Z,516.00
2022-09-27T05:53:50.460Z,524.00
2022-09-27T05:54:50.491Z,508.00
2022-09-27T05:55:50.519Z,472.00
2022-09-27T05:56:50.570Z,476.00
2022-09-27T05:57:55.172Z,484.00
2022-09-27T05:58:50.626Z,496.00
2022-09-27T05:59:50.636Z,492.00
2022-09-27T06:00:50.667Z,496.00
2022-09-27T06:01:50.762Z,512.00
2022-09-27T06:02:50.785Z,532.00
2022-09-27T06:03:50.756Z,548.00
2022-09-27T06:04:51.084Z,564.00
2022-09-27T06:05:51.548Z,584.00
2022-09-27T06:06:50.846Z,596.00
2022-09-27T06:07:50.887Z,612.00
2022-09-27T06:08:50.977Z,636.00
2022-09-27T06:09:50.973Z,656.00
2022-09-27T06:10:50.963Z,664.00
2022-09-27T06:11:51.293Z,680.00
2022-09-27T06:12:51.029Z,712.00
2022-09-27T06:13:51.057Z,740.00
2022-09-27T06:14:51.103Z,768.00
2022-09-27T06:15:51.113Z,792.00
2022-09-27T06:16:51.176Z,816.00
2022-09-27T06:17:51.170Z,856.00
2022-09-27T06:18:51.519Z,884.00
2022-09-27T06:19:51.233Z,904.00
2022-09-27T06:20:51.261Z,924.00
2022-09-27T06:21:51.288Z,952.00
2022-09-27T06:22:51.329Z,988.00
2022-09-27T06:23:54.193Z,1012.00
2022-09-27T06:24:51.380Z,1028.00
2022-09-27T06:25:51.714Z,1036.00
2022-09-27T06:26:51.444Z,1040.00
2022-09-27T06:27:51.468Z,1032.00
2022-09-27T06:28:51.499Z,1044.00
2022-09-27T06:29:51.559Z,1076.00
2022-09-27T06:30:51.633Z,1108.00
2022-09-27T06:31:51.589Z,1140.00
2022-09-27T06:32:51.918Z,1160.00
2022-09-27T06:33:51.646Z,1160.00
2022-09-27T06:34:51.679Z,1152.00
2022-09-27T06:35:51.710Z,1148.00
2022-09-27T06:36:51.806Z,1164.00
2022-09-27T06:37:51.768Z,1212.00
2022-09-27T06:38:51.801Z,1276.00
2022-09-27T06:39:52.143Z,1320.00
2022-09-27T06:40:51.934Z,1360.00
2022-09-27T06:41:51.884Z,1392.00
2022-09-27T06:42:51.917Z,1396.00
2022-09-27T06:43:51.941Z,1336.00
2022-09-27T06:44:51.977Z,1308.00
2022-09-27T06:45:52.062Z,1292.00
2022-09-27T06:46:52.371Z,1296.00
2022-09-27T06:47:52.064Z,1300.00
2022-09-27T06:48:52.094Z,1304.00
2022-09-27T06:49:52.126Z,1300.00
2022-09-27T06:50:52.204Z,1296.00
2022-09-27T06:51:52.182Z,1316.00
2022-09-27T06:52:52.515Z,1324.00
2022-09-27T06:53:52.256Z,1312.00
2022-09-27T06:54:52.282Z,1284.00
2022-09-27T06:55:52.313Z,1252.00
2022-09-27T06:56:52.349Z,1240.00
2022-09-27T06:57:52.362Z,1244.00
2022-09-27T06:58:52.691Z,1264.00
2022-09-27T06:59:52.418Z,1288.00
2022-09-27T07:00:52.492Z,1288.00
2022-09-27T07:01:52.713Z,1248.00
2022-09-27T07:02:52.534Z,1232.00
2022-09-27T07:03:52.541Z,1236.00
2022-09-27T07:04:52.870Z,1244.00
2022-09-27T07:05:52.596Z,1236.00
2022-09-27T07:06:52.634Z,1220.00
2022-09-27T07:07:52.660Z,1216.00
2022-09-27T07:08:52.689Z,1236.00
2022-09-27T07:09:52.721Z,1288.00
2022-09-27T07:10:52.746Z,1324.00
2022-09-27T07:11:53.094Z,1364.00
2022-09-27T07:13:52.835Z,1420.00
2022-09-27T07:14:52.864Z,1448.00
2022-09-27T07:15:52.914Z,1480.00
2022-09-27T07:16:53.028Z,1520.00
2022-09-27T07:17:52.954Z,1536.00
2022-09-27T07:18:53.306Z,1540.00
2022-09-27T07:19:53.168Z,1552.00
2022-09-27T07:20:56.790Z,1576.00
2022-09-27T07:21:53.078Z,1640.00
2022-09-27T07:22:53.108Z,1712.00
2022-09-27T07:23:53.138Z,1780.00
2022-09-27T07:24:53.170Z,1796.00
2022-09-27T07:25:53.510Z,1784.00
2022-09-27T07:26:53.224Z,1748.00
2022-09-27T07:27:53.304Z,1692.00
2022-09-27T07:28:53.285Z,1628.00
2022-09-27T07:29:53.313Z,1612.00
2022-09-27T07:30:53.384Z,1632.00
2022-09-27T07:31:53.373Z,1652.00
2022-09-27T07:32:53.704Z,1636.00
2022-09-27T07:33:53.431Z,1600.00
2022-09-27T07:34:53.476Z,1544.00
2022-09-27T07:35:53.492Z,1484.00
2022-09-27T07:36:53.519Z,1432.00
2022-09-27T07:37:53.551Z,1392.00
2022-09-27T07:38:53.577Z,1348.00
2022-09-27T07:39:53.963Z,1340.00
2022-09-27T07:40:53.741Z,1360.00
2022-09-27T07:41:53.668Z,1368.00
2022-09-27T07:42:53.696Z,1348.00
2022-09-27T07:43:53.730Z,1340.00
2022-09-27T07:44:53.756Z,1344.00
2022-09-27T07:45:53.837Z,1356.00
2022-09-27T07:46:54.114Z,1368.00
2022-09-27T07:47:53.843Z,1412.00
2022-09-27T07:48:53.878Z,1448.00
2022-09-27T07:49:54.007Z,1480.00
2022-09-27T07:50:53.968Z,1532.00
2022-09-27T07:51:53.968Z,1644.00
2022-09-27T07:52:54.000Z,1784.00
2022-09-27T07:53:54.323Z,1916.00
2022-09-27T07:54:54.055Z,2040.00
2022-09-27T07:55:54.085Z,2164.00
2022-09-27T07:56:54.113Z,2248.00
2022-09-27T07:57:54.148Z,2304.00
2022-09-27T07:58:54.195Z,2372.00
2022-09-27T07:59:54.204Z,2460.00
2022-09-27T08:00:54.669Z,2596.00
2022-09-27T08:01:54.358Z,2752.00
2022-09-27T08:02:54.292Z,2868.00
2022-09-27T08:03:54.327Z,2972.00
2022-09-27T08:04:54.352Z,3116.00
2022-09-27T08:05:54.382Z,3176.00
2022-09-27T08:06:54.436Z,3224.00
2022-09-27T08:07:54.748Z,3348.00
2022-09-27T08:08:54.479Z,3476.00
2022-09-27T08:09:54.498Z,3564.00
2022-09-27T08:10:54.532Z,3684.00
2022-09-27T08:11:54.558Z,3868.00
2022-09-27T08:12:54.593Z,4108.00
2022-09-27T08:13:54.621Z,4416.00
2022-09-27T08:14:54.967Z,4608.00
2022-09-27T08:15:54.681Z,4740.00
2022-09-27T08:16:54.749Z,4880.00
2022-09-27T08:17:54.739Z,4912.00
2022-09-27T08:18:54.770Z,4764.00
2022-09-27T08:19:54.800Z,4556.00
2022-09-27T08:20:54.828Z,4348.00
2022-09-27T08:21:58.685Z,4252.00
2022-09-27T08:22:54.913Z,4176.00
2022-09-27T08:23:54.928Z,4136.00
2022-09-27T08:24:54.953Z,4140.00
2022-09-27T08:25:54.978Z,4168.00
2022-09-27T08:26:55.008Z,4124.00
2022-09-27T08:27:55.037Z,3976.00
2022-09-27T08:28:55.370Z,3780.00
2022-09-27T08:29:55.095Z,3664.00
2022-09-27T08:30:55.127Z,3632.00
2022-09-27T08:31:55.191Z,3620.00
2022-09-27T08:32:55.191Z,3624.00
2022-09-27T08:33:55.222Z,3608.00
2022-09-27T08:34:55.252Z,3668.00
2022-09-27T08:35:55.582Z,3676.00
2022-09-27T08:36:55.306Z,3732.00
2022-09-27T08:37:55.334Z,3776.00
2022-09-27T08:38:55.392Z,3792.00
2022-09-27T08:39:55.396Z,3780.00
2022-09-27T08:40:55.481Z,3744.00
2022-09-27T08:41:55.757Z,3724.00
2022-09-27T08:42:55.486Z,3652.00
2022-09-27T08:43:55.520Z,3612.00
2022-09-27T08:44:55.548Z,3612.00
2022-09-27T08:45:55.610Z,3628.00
2022-09-27T08:46:55.609Z,3648.00
2022-09-27T08:47:55.935Z,3636.00
2022-09-27T08:48:55.668Z,3656.00
2022-09-27T08:50:55.738Z,3684.00
2022-09-27T08:51:55.856Z,3696.00
2022-09-27T08:52:55.788Z,3680.00
2022-09-27T08:53:56.121Z,3732.00
2022-09-27T08:54:55.903Z,3820.00
2022-09-27T08:55:55.893Z,3928.00
2022-09-27T08:56:55.909Z,4040.00
2022-09-27T08:57:55.939Z,4112.00
2022-09-27T08:58:55.965Z,4188.00
2022-09-27T08:59:56.015Z,4164.00
2022-09-27T09:00:56.346Z,4176.00
2022-09-27T09:01:56.167Z,4172.00
2022-09-27T09:02:56.085Z,4140.00
2022-09-27T09:03:56.117Z,4088.00
2022-09-27T09:04:56.153Z,4032.00
2022-09-27T09:05:56.214Z,3988.00
2022-09-27T09:06:56.207Z,4000.00
2022-09-27T09:07:56.545Z,4020.00
2022-09-27T09:08:56.272Z,4012.00
2022-09-27T09:09:56.298Z,4072.00
2022-09-27T09:10:56.349Z,4096.00
2022-09-27T09:11:56.361Z,4064.00
2022-09-27T09:12:56.390Z,4016.00
2022-09-27T09:13:56.426Z,3996.00
2022-09-27T09:14:56.761Z,4100.00
2022-09-27T09:15:56.482Z,4368.00
2022-09-27T09:16:56.524Z,4476.00
2022-09-27T09:17:56.540Z,4412.00
2022-09-27T09:18:56.571Z,4436.00
2022-09-27T09:19:56.604Z,4300.00
2022-09-27T09:20:56.637Z,4088.00
2022-09-27T09:21:56.973Z,3920.00
2022-09-27T09:22:56.689Z,3916.00
2022-09-27T09:23:56.729Z,3788.00
2022-09-27T09:24:56.751Z,4040.00
2022-09-27T09:25:56.781Z,4436.00
2022-09-27T09:26:57.763Z,4632.00
2022-09-27T09:28:01.491Z,4640.00
2022-09-27T09:28:57.177Z,4400.00
2022-09-27T09:29:56.901Z,4316.00
2022-09-27T09:30:56.941Z,4352.00
2022-09-27T09:31:57.005Z,4164.00
2022-09-27T09:32:56.997Z,4044.00
2022-09-27T09:33:57.029Z,3916.00
2022-09-27T09:34:57.058Z,3772.00
2022-09-27T09:35:57.910Z,3820.00
2022-09-27T09:36:57.114Z,3648.00
2022-09-27T09:37:57.146Z,3136.00
2022-09-27T09:38:57.175Z,2960.00
2022-09-27T09:39:57.213Z,3544.00
2022-09-27T09:40:57.285Z,4236.00
2022-09-27T09:41:57.273Z,4068.00
2022-09-27T09:42:57.627Z,3440.00
2022-09-27T09:43:57.330Z,3076.00
2022-09-27T09:44:57.356Z,3680.00
2022-09-27T09:45:57.459Z,4256.00
2022-09-27T09:46:57.418Z,4064.00
2022-09-27T09:47:57.452Z,4212.00
2022-09-27T09:48:57.488Z,4180.00
2022-09-27T09:49:57.810Z,3880.00
2022-09-27T09:50:57.555Z,3480.00
2022-09-27T09:51:57.587Z,2796.00
2022-09-27T09:52:57.613Z,2596.00
2022-09-27T09:53:57.634Z,3060.00
2022-09-27T09:54:57.659Z,3576.00
2022-09-27T09:55:57.693Z,3968.00
2022-09-27T09:56:58.024Z,4648.00
2022-09-27T09:57:57.758Z,5144.00
2022-09-27T09:58:57.817Z,5364.00
2022-09-27T09:59:57.814Z,5532.00
2022-09-27T10:00:57.897Z,5704.00
2022-09-27T10:01:57.909Z,5820.00
2022-09-27T10:02:57.908Z,5656.00
2022-09-27T10:03:58.257Z,5504.00
2022-09-27T10:04:57.973Z,5248.00
2022-09-27T10:05:57.993Z,4380.00
2022-09-27T10:06:58.025Z,4232.00
2022-09-27T10:07:58.061Z,4728.00
2022-09-27T10:08:58.085Z,4728.00
2022-09-27T10:09:58.128Z,4860.00
2022-09-27T10:10:58.445Z,4844.00
2022-09-27T10:11:58.178Z,4924.00
2022-09-27T10:12:58.211Z,5148.00
2022-09-27T10:13:58.242Z,4548.00
2022-09-27T10:14:58.383Z,4168.00
2022-09-27T10:15:58.398Z,4124.00
2022-09-27T10:16:58.337Z,4144.00
2022-09-27T10:17:58.662Z,4172.00
2022-09-27T10:18:58.393Z,4228.00
2022-09-27T10:19:58.426Z,4480.00
2022-09-27T10:20:58.458Z,4836.00
2022-09-27T10:21:58.482Z,4912.00
2022-09-27T10:22:58.521Z,4756.00
2022-09-27T10:23:58.545Z,4524.00
2022-09-27T10:24:58.877Z,4288.00
2022-09-27T10:25:58.955Z,3800.00
2022-09-27T10:26:58.635Z,3280.00
2022-09-27T10:27:58.665Z,2748.00
2022-09-27T10:28:58.698Z,2348.00
2022-09-27T10:29:58.726Z,2076.00
2022-09-27T10:30:58.779Z,1832.00
2022-09-27T10:31:59.121Z,1704.00
2022-09-27T10:32:58.820Z,1732.00
2022-09-27T10:33:58.851Z,2132.00
2022-09-27T10:34:58.897Z,2808.00
2022-09-27T10:35:58.911Z,3068.00
2022-09-27T10:36:59.039Z,2716.00
2022-09-27T10:37:59.271Z,2312.00
2022-09-27T10:38:59.001Z,2320.00
2022-09-27T10:39:59.028Z,2472.00
2022-09-27T10:40:59.186Z,2696.00
2022-09-27T10:41:59.091Z,2620.00
2022-09-27T10:42:59.122Z,2024.00
2022-09-27T10:43:59.454Z,1452.00
2022-09-27T10:44:59.183Z,1264.00
2022-09-27T10:45:59.309Z,1116.00
2022-09-27T10:46:59.266Z,1200.00
2022-09-27T10:47:59.281Z,1108.00
2022-09-27T10:48:59.302Z,1124.00
2022-09-27T10:49:59.634Z,1260.00
2022-09-27T10:50:59.688Z,1456.00
2022-09-27T10:51:59.445Z,1456.00
2022-09-27T10:52:59.425Z,1584.00
2022-09-27T10:53:59.458Z,1932.00
2022-09-27T10:54:59.489Z,2156.00
2022-09-27T10:55:59.528Z,1996.00
2022-09-27T10:56:59.862Z,2380.00
2022-09-27T10:57:59.583Z,1960.00
2022-09-27T10:58:59.606Z,1696.00
2022-09-27T10:59:59.655Z,1716.00
2022-09-27T11:00:59.711Z,1372.00
2022-09-27T11:01:59.700Z,972.00
2022-09-27T11:02:59.754Z,988.00
2022-09-27T11:04:00.090Z,1336.00
2022-09-27T11:04:59.842Z,2196.00
2022-09-27T11:05:59.826Z,2964.00
2022-09-27T11:06:59.862Z,3104.00
2022-09-27T11:07:59.887Z,3776.00
2022-09-27T11:08:59.910Z,4020.00
2022-09-27T11:10:00.010Z,4372.00
2022-09-27T11:11:00.271Z,4892.00
2022-09-27T11:12:00.023Z,5220.00
2022-09-27T11:13:00.033Z,5332.00
2022-09-27T11:14:00.112Z,5400.00
2022-09-27T11:15:00.125Z,5464.00
2022-09-27T11:16:00.220Z,5556.00
2022-09-27T11:17:00.154Z,5684.00
2022-09-27T11:18:00.494Z,5796.00
2022-09-27T11:19:00.310Z,5860.00
2022-09-27T11:20:00.247Z,5896.00
2022-09-27T11:21:00.289Z,5888.00
2022-09-27T11:22:00.319Z,5856.00
2022-09-27T11:23:00.338Z,5772.00
2022-09-27T11:24:00.419Z,5656.00
2022-09-27T11:25:00.702Z,5500.00
2022-09-27T11:26:00.429Z,5280.00
2022-09-27T11:27:00.457Z,4980.00
2022-09-27T11:28:00.494Z,4692.00
2022-09-27T11:29:00.531Z,4680.00
2022-09-27T11:30:00.556Z,4760.00
2022-09-27T11:31:00.632Z,4528.00
2022-09-27T11:32:00.933Z,4300.00
2022-09-27T11:33:00.646Z,4132.00
2022-09-27T11:34:00.669Z,3604.00
2022-09-27T11:35:00.733Z,3124.00
2022-09-27T11:36:00.738Z,2904.00
2022-09-27T11:37:00.800Z,3092.00
2022-09-27T11:38:00.796Z,3476.00
2022-09-27T11:39:02.815Z,4228.00
2022-09-27T11:40:00.859Z,4340.00
2022-09-27T11:41:00.891Z,4380.00
2022-09-27T11:42:00.920Z,4440.00
2022-09-27T11:43:01.003Z,4396.00
2022-09-27T11:44:00.980Z,4224.00
2022-09-27T11:45:31.835Z,4028.00
2022-09-27T11:46:23.935Z,3768.00
2022-09-27T11:47:01.147Z,3440.00
2022-09-27T11:48:01.209Z,3220.00
2022-09-27T11:49:01.136Z,3076.00
2022-09-27T11:50:01.162Z,2892.00
2022-09-27T11:51:01.227Z,2984.00
2022-09-27T11:52:01.230Z,3156.00
2022-09-27T11:53:01.555Z,3120.00
2022-09-27T11:54:01.292Z,2924.00
2022-09-27T11:55:01.316Z,2784.00
2022-09-27T11:56:01.345Z,3048.00
2022-09-27T11:57:01.381Z,3388.00
2022-09-27T11:58:01.411Z,3928.00
2022-09-27T11:59:01.443Z,4500.00
2022-09-27T12:00:01.777Z,5144.00
2022-09-27T12:01:01.501Z,5820.00
2022-09-27T12:02:01.599Z,6128.00
2022-09-27T12:03:01.630Z,6276.00
2022-09-27T12:04:01.589Z,6528.00
2022-09-27T12:05:01.623Z,6860.00
2022-09-27T12:06:07.009Z,7040.00
2022-09-27T12:07:02.007Z,7144.00
2022-09-27T12:08:01.812Z,7188.00
2022-09-27T12:09:01.746Z,7236.00
2022-09-27T12:10:01.774Z,7216.00
2022-09-27T12:11:01.807Z,7184.00
2022-09-27T12:12:01.831Z,7116.00
2022-09-27T12:13:01.868Z,7052.00
2022-09-27T12:14:02.191Z,6956.00
2022-09-27T12:15:06.661Z,6852.00
2022-09-27T12:16:01.990Z,6688.00
2022-09-27T12:17:01.987Z,6284.00
2022-09-27T12:18:02.019Z,5556.00
2022-09-27T12:19:02.051Z,4732.00
2022-09-27T12:20:02.085Z,4260.00
2022-09-27T12:21:02.413Z,4056.00
2022-09-27T12:22:02.189Z,3636.00
2022-09-27T12:23:02.193Z,2748.00
2022-09-27T12:24:02.201Z,2444.00
2022-09-27T12:25:02.246Z,2536.00
2022-09-27T12:26:02.269Z,2984.00
2022-09-27T12:27:02.595Z,3516.00
2022-09-27T12:28:02.338Z,4132.00
2022-09-27T12:29:02.358Z,5196.00
2022-09-27T12:30:02.385Z,5916.00
2022-09-27T12:31:27.528Z,6712.00
2022-09-27T12:32:02.509Z,7024.00
2022-09-27T12:33:02.783Z,6436.00
2022-09-27T12:34:02.516Z,5292.00
2022-09-27T12:35:02.594Z,5224.00
2022-09-27T12:36:02.576Z,4032.00
2022-09-27T12:37:02.621Z,2608.00
2022-09-27T12:38:02.630Z,1368.00
2022-09-27T12:39:02.997Z,1256.00
2022-09-27T12:40:02.696Z,1344.00
2022-09-27T12:41:02.801Z,1260.00
2022-09-27T12:42:02.757Z,880.00
2022-09-27T12:43:02.796Z,788.00
2022-09-27T12:44:02.829Z,996.00
2022-09-27T12:45:02.858Z,1800.00